Time;durP1;ratioP1;P1;durP2;ratioP2;P2;SDS_P1;SDS_P2;PMS_P1;PMS_P2;Temp;Humidity;BMP_temperature;BMP_pressure;BME280_temperature;BME280_humidity;BME280_pressure;Samples;Min_cycle;Max_cycle;Signal;HPM_P1;HPM_P2
2021/04/01 00:02:32;;;;;;;8.90;3.00;;;17.40;32.40;;;;;;20751517;28;20057;-57
2021/04/01 00:12:32;;;;;;;8.05;3.17;;;17.30;31.90;;;;;;20750940;28;20018;-57
2021/04/01 00:22:33;;;;;;;8.73;3.70;;;17.30;31.90;;;;;;20750131;28;20081;-58
2021/04/01 00:32:35;;;;;;;10.60;3.58;;;17.30;32.40;;;;;;20749543;28;20074;-55
2021/04/01 00:42:36;;;;;;;8.45;3.75;;;17.30;33.00;;;;;;20748677;28;20036;-55
2021/04/01 00:52:38;;;;;;;13.00;3.92;;;17.30;34.20;;;;;;20748384;28;20014;-55
2021/04/01 01:02:39;;;;;;;7.10;3.22;;;17.20;35.00;;;;;;20751328;28;20041;-57
2021/04/01 01:12:40;;;;;;;8.98;3.58;;;17.20;35.50;;;;;;20764351;28;20550;-55
2021/04/01 01:22:43;;;;;;;8.50;3.50;;;16.90;35.80;;;;;;20763624;28;20417;-57
2021/04/01 01:32:46;;;;;;;7.60;3.47;;;16.70;35.80;;;;;;20763072;28;20130;-57
2021/04/01 01:42:49;;;;;;;6.70;3.37;;;16.50;35.50;;;;;;20762029;28;20056;-55
2021/04/01 01:52:50;;;;;;;8.82;3.25;;;16.40;35.50;;;;;;20761592;28;20022;-58
2021/04/01 02:02:53;;;;;;;17.67;4.13;;;16.30;35.60;;;;;;20760947;28;20030;-55
2021/04/01 02:12:55;;;;;;;7.28;3.08;;;16.30;35.90;;;;;;20760023;28;20022;-55
2021/04/01 02:22:55;;;;;;;8.80;2.58;;;16.20;35.70;;;;;;20758975;28;20058;-57
2021/04/01 02:32:56;;;;;;;7.93;3.08;;;16.20;35.40;;;;;;20759146;28;20022;-54
2021/04/01 02:42:57;;;;;;;9.15;2.78;;;16.10;35.20;;;;;;20757876;28;20064;-57
2021/04/01 02:52:58;;;;;;;12.23;3.10;;;16.10;35.20;;;;;;20757673;28;20018;-55
2021/04/01 03:03:12;;;;;;;11.15;3.47;;;16.00;35.10;;;;;;20756241;28;20477;-57
2021/04/01 03:13:13;;;;;;;10.70;3.03;;;16.00;35.00;;;;;;20755093;28;20108;-55
2021/04/01 03:23:14;;;;;;;12.30;3.05;;;15.90;35.30;;;;;;20753923;28;20489;-56
2021/04/01 03:33:15;;;;;;;6.72;2.70;;;15.80;35.10;;;;;;20753381;28;20473;-57
2021/04/01 03:43:16;;;;;;;8.13;3.00;;;15.90;34.60;;;;;;20753103;28;20436;-57
2021/04/01 03:53:17;;;;;;;10.98;2.70;;;15.80;34.60;;;;;;20752372;28;20026;-57
2021/04/01 04:13:31;;;;;;;10.02;2.80;;;15.70;34.70;;;;;;20750932;28;20030;-55
2021/04/01 04:23:33;;;;;;;8.17;2.87;;;15.60;35.00;;;;;;20749607;28;20100;-55
2021/04/01 04:33:34;;;;;;;7.78;2.67;;;15.60;35.20;;;;;;20749389;28;20489;-55
2021/04/01 04:43:35;;;;;;;7.22;2.85;;;15.60;35.40;;;;;;20748343;28;20034;-57
2021/04/01 04:53:36;;;;;;;8.48;2.90;;;15.60;35.70;;;;;;20748375;28;20026;-56
2021/04/01 05:13:56;;;;;;;7.60;1.98;;;15.60;35.60;;;;;;20748849;28;20073;-55
2021/04/01 05:23:57;;;;;;;10.48;3.15;;;15.60;35.20;;;;;;20747475;28;20057;-55
2021/04/01 05:33:58;;;;;;;6.80;2.55;;;15.50;35.40;;;;;;20746802;28;20069;-56
2021/04/01 06:04:53;;;;;;;7.75;2.80;;;15.30;35.60;;;;;;20761470;28;20049;-56
2021/04/01 06:14:50;;;;;;;8.02;2.65;;;15.30;35.90;;;;;;20757469;28;20026;-54
2021/04/01 06:24:52;;;;;;;7.27;2.47;;;15.30;35.80;;;;;;20758724;28;20058;-54
2021/04/01 06:34:53;;;;;;;6.05;2.80;;;15.30;36.20;;;;;;20758723;28;20025;-56
2021/04/01 06:44:59;;;;;;;10.40;2.63;;;15.40;35.90;;;;;;20758042;28;20077;-54
2021/04/01 06:55:19;;;;;;;6.78;2.92;;;15.50;35.90;;;;;;20757167;28;20018;-56
2021/04/01 07:05:26;;;;;;;6.25;2.88;;;15.60;35.30;;;;;;20755853;28;20099;-57
2021/04/01 07:15:32;;;;;;;7.97;3.33;;;15.50;35.30;;;;;;20755370;28;20026;-58
2021/04/01 07:36:03;;;;;;;7.65;3.60;;;15.70;35.00;;;;;;20754936;28;20030;-57
2021/04/01 07:46:28;;;;;;;9.23;3.58;;;15.70;35.20;;;;;;20752701;28;20041;-57
2021/04/01 07:56:33;;;;;;;;;;;15.90;35.40;;;;;;20752277;28;20040;-57
2021/04/01 08:06:36;;;;;;;9.40;2.40;;;16.20;33.90;;;;;;20751562;28;20016;-57
2021/04/01 08:16:44;;;;;;;6.40;2.58;;;16.50;33.60;;;;;;20750691;28;20030;-57
2021/04/01 08:36:55;;;;;;;4.82;2.45;;;17.20;33.10;;;;;;20749241;28;20037;-58
2021/04/01 08:47:29;;;;;;;6.53;2.72;;;17.20;33.00;;;;;;20748786;28;20045;-56
2021/04/01 08:57:48;;;;;;;8.10;2.22;;;17.20;33.30;;;;;;20748136;28;20033;-57
2021/04/01 09:07:54;;;;;;;6.28;2.58;;;17.40;32.40;;;;;;20747988;28;20042;-55
2021/04/01 09:17:55;;;;;;;8.25;1.85;;;17.50;32.60;;;;;;20747606;28;20026;-55
2021/04/01 09:28:04;;;;;;;9.23;2.40;;;17.70;32.30;;;;;;20756199;28;20141;-55
2021/04/01 09:38:09;;;;;;;4.15;2.25;;;17.70;32.20;;;;;;20762914;28;20038;-58
2021/04/01 09:48:12;;;;;;;5.90;2.00;;;17.70;32.50;;;;;;20762120;28;20026;-57
2021/04/01 09:58:21;;;;;;;7.82;2.95;;;17.80;31.80;;;;;;20761051;28;20030;-57
2021/04/01 10:08:32;;;;;;;8.88;2.75;;;18.20;31.80;;;;;;20760431;28;20474;-56
2021/04/01 10:18:36;;;;;;;9.70;2.10;;;18.40;31.90;;;;;;20759696;28;20029;-57
2021/04/01 10:38:42;;;;;;;5.60;2.20;;;18.20;31.30;;;;;;20757049;28;19909;-56
2021/04/01 10:48:50;;;;;;;9.07;2.97;;;18.20;31.80;;;;;;20755450;28;20042;-57
2021/04/01 10:58:54;;;;;;;8.38;2.65;;;18.50;31.30;;;;;;20756755;28;20103;-57
2021/04/01 11:08:58;;;;;;;6.53;2.17;;;19.10;30.50;;;;;;20755293;28;20042;-56
2021/04/01 11:18:59;;;;;;;;;;;19.50;29.90;;;;;;20755211;28;20053;-57
2021/04/01 11:28:59;;;;;;;8.85;2.50;;;19.70;29.40;;;;;;20753877;28;19917;-56
2021/04/01 11:39:03;;;;;;;8.85;2.80;;;20.10;29.50;;;;;;20753726;28;20462;-55
2021/04/01 11:49:04;;;;;;;9.85;2.90;;;20.40;29.10;;;;;;20752241;28;20088;-54
2021/04/01 11:59:15;;;;;;;8.15;2.33;;;20.70;28.90;;;;;;20752127;28;20503;-55
2021/04/01 12:09:17;;;;;;;10.30;2.80;;;20.90;28.30;;;;;;20751221;28;20361;-56
2021/04/01 12:19:17;;;;;;;7.47;2.40;;;21.20;27.90;;;;;;20750515;28;20113;-57
2021/04/01 12:29:18;;;;;;;8.60;2.95;;;21.40;27.80;;;;;;20749658;28;20096;-57
2021/04/01 12:39:32;;;;;;;8.48;3.10;;;21.70;27.80;;;;;;20750285;28;20065;-56
2021/04/01 12:49:37;;;;;;;9.80;3.80;;;21.80;27.80;;;;;;20748404;28;20041;-57
2021/04/01 12:59:46;;;;;;;7.50;3.50;;;22.00;27.90;;;;;;20748480;28;20104;-56
2021/04/01 13:19:47;;;;;;;11.35;3.65;;;22.40;27.60;;;;;;20748482;28;20446;-56
2021/04/01 13:30:00;;;;;;;11.70;4.03;;;22.60;27.00;;;;;;20747193;28;20533;-55
2021/04/01 13:40:11;;;;;;;14.15;4.40;;;22.80;26.70;;;;;;20747202;28;20053;-54
2021/04/01 13:50:15;;;;;;;16.08;3.92;;;22.90;26.70;;;;;;20746649;28;20030;-55
2021/04/01 14:10:19;;;;;;;13.18;4.55;;;23.10;26.50;;;;;;20749687;28;20038;-55
2021/04/01 14:20:20;;;;;;;12.85;3.97;;;23.10;26.60;;;;;;20759831;28;20169;-56
2021/04/01 14:30:23;;;;;;;12.55;3.88;;;23.10;27.10;;;;;;20759043;28;20061;-57
2021/04/01 14:40:27;;;;;;;9.05;4.05;;;23.10;26.70;;;;;;20758306;28;20034;-57
2021/04/01 14:50:28;;;;;;;11.55;3.95;;;23.10;26.80;;;;;;20758323;28;20425;-58
2021/04/01 15:00:28;;;;;;;11.35;3.65;;;23.20;25.70;;;;;;20756299;28;20079;-57
2021/04/01 15:10:29;;;;;;;13.60;4.07;;;23.10;27.20;;;;;;20756175;28;20121;-56
2021/04/01 15:20:31;;;;;;;17.85;6.97;;;23.10;26.50;;;;;;20754232;28;20382;-56
2021/04/01 15:30:31;;;;;;;14.75;4.07;;;23.20;26.60;;;;;;20753934;28;20502;-57
2021/04/01 15:40:34;;;;;;;13.95;4.70;;;23.10;26.40;;;;;;20753274;28;20389;-55
2021/04/01 15:50:35;;;;;;;11.15;4.35;;;23.10;27.00;;;;;;20752074;28;20034;-57
2021/04/01 16:00:37;;;;;;;12.73;4.55;;;23.00;27.50;;;;;;20751638;28;20021;-56
2021/04/01 16:10:37;;;;;;;19.37;5.10;;;23.00;27.30;;;;;;20750625;28;20173;-56
2021/04/01 16:20:39;;;;;;;22.15;4.70;;;22.90;27.90;;;;;;20749762;28;20053;-56
2021/04/01 16:30:40;;;;;;;16.50;5.07;;;22.90;28.30;;;;;;20749119;28;20061;-56
2021/04/01 16:40:40;;;;;;;23.33;5.65;;;22.70;29.00;;;;;;20749187;28;20109;-57
2021/04/01 16:50:41;;;;;;;23.98;5.63;;;22.60;29.30;;;;;;20747699;28;20095;-56
2021/04/01 17:00:42;;;;;;;15.20;4.10;;;22.60;29.20;;;;;;20728593;28;20030;-56
2021/04/01 17:10:43;;;;;;;25.48;4.78;;;22.40;29.30;;;;;;20745922;28;20057;-56
2021/04/01 17:20:44;;;;;;;14.32;4.65;;;22.20;30.10;;;;;;20745427;28;20049;-55
2021/04/01 17:30:45;;;;;;;28.88;5.65;;;22.10;30.80;;;;;;20744754;28;20493;-55
2021/04/01 17:40:46;;;;;;;17.08;4.88;;;22.00;31.30;;;;;;20727077;28;20033;-57
2021/04/01 17:50:47;;;;;;;14.80;4.75;;;21.90;31.70;;;;;;20756355;28;20120;-57
2021/04/01 18:32:05;;;;;;;20.25;5.82;;;21.00;33.60;;;;;;20757536;28;20038;-56
2021/04/01 18:42:16;;;;;;;18.50;4.55;;;20.80;34.40;;;;;;20742330;28;20030;-57
2021/04/01 18:52:28;;;;;;;20.42;5.85;;;20.70;34.90;;;;;;20756386;28;20508;-57
2021/04/01 19:02:31;;;;;;;15.95;6.47;;;20.40;35.30;;;;;;20754264;28;20401;-56
2021/04/01 19:23:07;;;;;;;19.02;5.65;;;20.20;37.10;;;;;;20754119;28;20061;-55
2021/04/01 19:33:08;;;;;;;25.33;5.47;;;20.00;37.90;;;;;;20753099;28;20101;-57
2021/04/01 19:43:10;;;;;;;18.92;5.97;;;19.90;38.50;;;;;;20754165;28;20037;-57
2021/04/01 19:53:12;;;;;;;15.55;4.93;;;19.80;39.00;;;;;;20753202;28;20024;-57
2021/04/01 20:03:13;;;;;;;19.27;6.13;;;19.60;39.30;;;;;;20752338;28;20038;-56
2021/04/01 20:13:16;;;;;;;16.65;5.65;;;19.60;39.70;;;;;;20751612;28;20026;-55
2021/04/01 20:23:16;;;;;;;19.13;6.47;;;19.40;40.20;;;;;;20750447;28;20053;-56
2021/04/01 20:33:21;;;;;;;16.50;6.38;;;19.30;40.40;;;;;;20750114;28;20466;-56
2021/04/01 20:43:22;;;;;;;18.38;7.07;;;19.20;40.80;;;;;;20732944;28;20096;-57
2021/04/01 20:53:27;;;;;;;17.52;7.18;;;19.10;41.30;;;;;;20749094;28;20026;-57
2021/04/01 21:03:30;;;;;;;22.40;7.35;;;18.90;41.50;;;;;;20748475;28;20172;-55
2021/04/01 21:13:31;;;;;;;16.80;4.53;;;18.80;41.90;;;;;;20747154;28;20529;-55
2021/04/01 21:23:32;;;;;;;12.40;3.92;;;18.70;42.00;;;;;;20756694;28;20524;-55
2021/04/01 21:33:36;;;;;;;12.45;4.07;;;18.60;42.60;;;;;;20764137;28;20040;-55
2021/04/01 21:43:39;;;;;;;9.23;3.70;;;18.50;43.50;;;;;;20762948;28;20038;-56
2021/04/01 21:53:39;;;;;;;13.02;3.88;;;18.50;44.10;;;;;;20762262;28;20030;-55
2021/04/01 22:03:40;;;;;;;12.45;3.60;;;18.10;46.80;;;;;;20761706;28;20385;-57
2021/04/01 22:13:41;;;;;;;15.10;3.47;;;17.80;48.20;;;;;;20760983;28;20130;-54
2021/04/01 22:23:43;;;;;;;7.68;3.15;;;17.50;51.20;;;;;;20760013;28;20405;-55
2021/04/01 22:33:47;;;;;;;7.10;2.65;;;17.40;51.90;;;;;;20759047;28;20022;-56
2021/04/01 22:43:49;;;;;;;7.00;2.75;;;17.20;52.90;;;;;;20758385;28;20073;-57
2021/04/01 22:53:50;;;;;;;6.50;2.60;;;17.10;53.20;;;;;;20758006;28;20424;-56
2021/04/01 23:03:51;;;;;;;8.63;2.60;;;17.00;54.10;;;;;;20756756;28;20116;-56
2021/04/01 23:13:52;;;;;;;7.00;2.75;;;16.90;54.00;;;;;;20756798;28;20026;-56
2021/04/01 23:23:53;;;;;;;9.25;2.80;;;16.80;54.50;;;;;;20753964;28;20485;-56
2021/04/01 23:33:53;;;;;;;9.88;2.70;;;16.80;54.40;;;;;;20755254;28;20095;-55
2021/04/01 23:43:54;;;;;;;9.45;2.83;;;16.90;54.50;;;;;;20753668;28;20026;-56
2021/04/01 23:53:55;;;;;;;5.72;2.40;;;16.90;54.80;;;;;;20753664;28;20100;-55
